Todos
Hay Airport (Hay, New South Wales) HXX Condições meteorológicas
|
Hay, New South Wales (HXX / YHAY)
Céu Limpo
Vento Ligeiro |
|
16 °C |
There is no TAF data available at HXX or any nearby airports.
Histórico recente de METAR HXX
| Date | Time (AEST) | Flight Rules | Wind Dir. | Speed | Type | Height AGL (ft) | Visibility | Temp (°C) | Temp (°F) | Dew Point (°C) | Dew Point (°F) | Rel. Humid. | Pressure | Density Altitude | Remarks |
|---|---|---|---|---|---|---|---|---|---|---|---|---|---|---|---|
| 04-Mai | 19:00 | n/a | 320° | 7 kt | Missing | 16° | 60° | 8° | 46° | 59% | 1016 mb | 343 ft | |||
| 04-Mai | 18:00 | n/a | 330° | 8 kt | Missing | 15° | 59° | 8° | 46° | 63% | 1015 mb | 252 ft | |||
| 04-Mai | 17:00 | n/a | 310° | 15 kt | Missing | 18° | 64° | 6° | 42° | 45% | 1014 mb | 642 ft | |||
| 04-Mai | 16:00 | n/a | 300° | 15 kt | Missing | 20° | 68° | 6° | 42° | 40% | 1014 mb | 882 ft | |||
| 04-Mai | 15:00 | n/a | 330° | 15 kt | Missing | 21° | 69° | 6° | 42° | 38% | 1013 mb | 1.031 ft | |||
| 04-Mai | 14:00 | n/a | 340° | 15 kt | Missing | 20° | 68° | 8° | 46° | 46% | 1014 mb | 882 ft | |||
| 04-Mai | 13:00 | n/a | 330° | 13 kt | Missing | 20° | 68° | 9° | 48° | 49% | 1014 mb | 882 ft | |||
| 04-Mai | 12:00 | n/a | 340° | 11 kt | Missing | 19° | 66° | 10° | 50° | 56% | 1015 mb | 732 ft | |||
| 04-Mai | 11:00 | n/a | 340° | 9 kt | Missing | 18° | 64° | 11° | 51° | 64% | 1016 mb | 583 ft | |||
| 04-Mai | 10:00 | n/a | 320° | 8 kt | Missing | 16° | 60° | 12° | 53° | 77% | 1016 mb | 343 ft | |||
| 04-Mai | 09:00 | n/a | 330° | 8 kt | Missing | 13° | 55° | 11° | 51° | 88% | 1016 mb | -17 ft | |||
| 04-Mai | 08:00 | n/a | 360° | 8 kt | Missing | 11° | 51° | 11° | 51° | 100% | 1015 mb | -228 ft | |||
| 04-Mai | 07:00 | n/a | 360° | 7 kt | Missing | 9° | 48° | 9° | 48° | 100% | 1015 mb | -468 ft | |||
| 04-Mai | 06:00 | n/a | 350° | 6 kt | Missing | 10° | 50° | 10° | 50° | 100% | 1014 mb | -318 ft | |||
| 04-Mai | 05:00 | n/a | 330° | 6 kt | Missing | 10° | 50° | 10° | 50° | 100% | 1014 mb | -318 ft | |||
| 04-Mai | 04:00 | n/a | 340° | 6 kt | Missing | 10° | 50° | 10° | 50° | 100% | 1014 mb | -318 ft | |||
| 04-Mai | 03:00 | n/a | 330° | 6 kt | Missing | 10° | 50° | 10° | 50° | 100% | 1014 mb | -318 ft | |||
| 04-Mai | 02:00 | n/a | 340° | 6 kt | Missing | 11° | 51° | 11° | 51° | 100% | 1015 mb | -228 ft | |||
| 04-Mai | 01:00 | n/a | 330° | 7 kt | Missing | 11° | 51° | 11° | 51° | 100% | 1015 mb | -228 ft | |||
| 04-Mai | 00:00 | n/a | 360° | 5 kt | Missing | 13° | 55° | 13° | 55° | 100% | 1015 mb | 12 ft | |||
| 03-Mai | 23:00 | n/a | 350° | 5 kt | Missing | 13° | 55° | 13° | 55° | 100% | 1015 mb | 12 ft | |||
| 03-Mai | 22:00 | n/a | 350° | 7 kt | Missing | 15° | 59° | 15° | 59° | 100% | 1015 mb | 252 ft | |||
| 03-Mai | 21:00 | n/a | 330° | 7 kt | Missing | 15° | 59° | 15° | 59° | 100% | 1015 mb | 252 ft | |||
| 03-Mai | 20:00 | n/a | 340° | 5 kt | Missing | 16° | 60° | 15° | 59° | 94% | 1015 mb | 372 ft |
Entrar
| Seu navegador não suporta. atualize seu navegador |
